createdAt,value
2022-12-24T00:00:24.615Z,94704.00
2022-12-24T00:01:24.445Z,94694.00
2022-12-24T00:02:24.563Z,94696.00
2022-12-24T00:03:24.593Z,94698.00
2022-12-24T00:04:24.419Z,94700.00
2022-12-24T00:05:24.410Z,94700.00
2022-12-24T00:06:24.420Z,94694.00
2022-12-24T00:07:24.413Z,94692.00
2022-12-24T07:45:59.133Z,95256.00
2022-12-24T07:46:59.202Z,95256.00
2022-12-24T07:47:59.123Z,95256.00
2022-12-24T07:48:59.104Z,95264.00
2022-12-24T07:49:59.097Z,95264.00
2022-12-24T07:50:59.122Z,95264.00
2022-12-24T07:51:59.076Z,95268.00
2022-12-24T07:52:59.083Z,95264.00
2022-12-24T07:53:59.062Z,95268.00
2022-12-24T07:54:59.048Z,95272.00
2022-12-24T07:55:59.038Z,95268.00
2022-12-24T07:56:59.032Z,95260.00
2022-12-24T07:57:59.016Z,95264.00
2022-12-24T07:58:59.006Z,95266.00
2022-12-24T07:59:58.997Z,95268.00
2022-12-24T08:00:58.987Z,95274.00
2022-12-24T08:01:59.227Z,95276.00
2022-12-24T08:02:59.182Z,95278.00
2022-12-24T08:03:59.094Z,95280.00
2022-12-24T08:04:58.950Z,95282.00
2022-12-24T08:05:58.937Z,95286.00
2022-12-24T08:06:58.952Z,95280.00
2022-12-24T08:07:58.918Z,95274.00
2022-12-24T08:08:58.913Z,95274.00
2022-12-24T08:09:58.900Z,95278.00
2022-12-24T08:10:58.890Z,95282.00
2022-12-24T08:11:58.896Z,95280.00
2022-12-24T08:12:58.873Z,95286.00
2022-12-24T08:13:58.867Z,95288.00
2022-12-24T08:14:58.858Z,95290.00
2022-12-24T08:15:58.896Z,95290.00
2022-12-24T08:16:58.837Z,95290.00
2022-12-24T08:17:58.825Z,95292.00
2022-12-24T08:18:58.819Z,95294.00
2022-12-24T08:19:58.813Z,95294.00
2022-12-24T08:20:58.797Z,95297.00
2022-12-24T08:21:58.788Z,95299.00
2022-12-24T08:22:58.802Z,95301.00
2022-12-24T08:23:58.774Z,95301.00
2022-12-24T08:24:58.760Z,95299.00
2022-12-24T08:25:58.753Z,95299.00
2022-12-24T08:26:58.741Z,95301.00
2022-12-24T08:27:58.728Z,95301.00
2022-12-24T08:28:58.734Z,95295.00
2022-12-24T08:29:58.714Z,95303.00
2022-12-24T08:30:58.701Z,95301.00
2022-12-24T08:31:58.812Z,95303.00
2022-12-24T08:32:58.684Z,95303.00
2022-12-24T08:33:58.686Z,95299.00
2022-12-24T08:34:58.670Z,95299.00
2022-12-24T08:35:58.664Z,95295.00
2022-12-24T08:36:58.656Z,95297.00
2022-12-24T08:37:58.646Z,95297.00
2022-12-24T08:38:58.649Z,95307.00
2022-12-24T08:39:58.632Z,95299.00
2022-12-24T08:40:58.615Z,95307.00
2022-12-24T08:41:58.781Z,95305.00
2022-12-24T08:42:58.668Z,95305.00
2022-12-24T08:43:58.574Z,95297.00
2022-12-24T08:44:58.589Z,95297.00
2022-12-24T08:45:58.609Z,95301.00
2022-12-24T08:46:58.551Z,95299.00
2022-12-24T08:47:58.541Z,95295.00
2022-12-24T08:48:58.533Z,95294.00
2022-12-24T08:49:58.528Z,95295.00
2022-12-24T08:50:58.513Z,95301.00
2022-12-24T08:51:58.511Z,95305.00
2022-12-24T08:52:58.495Z,95309.00
2022-12-24T08:53:58.490Z,95309.00
2022-12-24T08:54:58.499Z,95303.00
2022-12-24T08:55:58.465Z,95305.00
2022-12-24T08:56:58.470Z,95297.00
2022-12-24T08:57:58.447Z,95301.00
2022-12-24T08:58:58.439Z,95303.00
2022-12-24T08:59:58.435Z,95303.00
2022-12-24T09:00:58.467Z,95301.00
2022-12-24T09:01:58.685Z,95299.00
2022-12-24T09:02:58.594Z,95292.00
2022-12-24T09:03:58.394Z,95294.00
2022-12-24T09:04:58.381Z,95297.00
2022-12-24T09:05:58.380Z,95297.00
2022-12-24T09:06:58.363Z,95301.00
2022-12-24T09:07:58.351Z,95301.00
2022-12-24T09:08:58.342Z,95303.00
2022-12-24T09:09:58.334Z,95303.00
2022-12-24T09:10:58.349Z,95307.00
2022-12-24T09:11:58.312Z,95313.00
2022-12-24T09:12:58.303Z,95323.00
2022-12-24T09:13:58.305Z,95323.00
2022-12-24T09:15:03.441Z,95325.00
2022-12-24T09:15:58.277Z,95319.00
2022-12-24T09:16:58.363Z,95317.00
2022-12-24T09:17:58.259Z,95317.00
2022-12-24T09:18:58.320Z,95325.00
2022-12-24T09:19:58.242Z,95325.00
2022-12-24T09:20:58.239Z,95327.00
2022-12-24T09:21:58.216Z,95321.00
2022-12-24T09:22:58.219Z,95323.00
2022-12-24T09:23:58.207Z,95327.00
2022-12-24T09:24:58.195Z,95329.00
2022-12-24T09:25:58.187Z,95327.00
2022-12-24T09:26:58.319Z,95325.00
2022-12-24T09:27:58.162Z,95319.00
2022-12-24T09:28:58.156Z,95321.00
2022-12-24T09:29:58.149Z,95319.00
2022-12-24T09:30:58.130Z,95323.00
2022-12-24T09:31:58.178Z,95321.00
2022-12-24T09:32:58.115Z,95321.00
2022-12-24T09:33:58.105Z,95325.00
2022-12-24T09:34:58.097Z,95327.00
2022-12-24T09:35:58.111Z,95327.00
2022-12-24T09:36:58.079Z,95327.00
2022-12-24T09:37:58.092Z,95329.00
2022-12-24T09:38:58.061Z,95329.00
2022-12-24T09:39:58.049Z,95327.00
2022-12-24T09:41:01.148Z,95327.00
2022-12-24T09:41:58.031Z,95331.00
2022-12-24T09:42:58.050Z,95335.00
2022-12-24T09:43:58.014Z,95337.00
2022-12-24T09:44:58.003Z,95341.00
2022-12-24T09:45:58.058Z,95341.00
2022-12-24T09:46:57.988Z,95339.00
2022-12-24T09:47:57.980Z,95337.00
2022-12-24T09:48:57.981Z,95335.00
2022-12-24T09:49:57.953Z,95335.00
2022-12-24T09:50:57.944Z,95335.00
2022-12-24T09:51:57.931Z,95337.00
2022-12-24T09:52:57.921Z,95339.00
2022-12-24T09:53:57.916Z,95339.00
2022-12-24T09:54:57.903Z,95339.00
2022-12-24T09:55:57.899Z,95343.00
2022-12-24T09:56:57.889Z,95339.00
2022-12-24T09:57:57.875Z,95343.00
2022-12-24T09:58:57.910Z,95345.00
2022-12-24T09:59:57.853Z,95347.00
2022-12-24T10:00:57.950Z,95343.00
2022-12-24T10:01:57.981Z,95343.00
2022-12-24T10:02:57.918Z,95343.00
2022-12-24T10:03:57.815Z,95345.00
2022-12-24T10:04:57.815Z,95347.00
2022-12-24T10:05:57.797Z,95347.00
2022-12-24T10:06:57.790Z,95350.00
2022-12-24T10:07:57.781Z,95350.00
2022-12-24T10:08:57.791Z,95349.00
2022-12-24T10:09:57.759Z,95345.00
2022-12-24T10:10:57.752Z,95343.00
2022-12-24T10:11:57.739Z,95341.00
2022-12-24T10:12:57.731Z,95341.00
2022-12-24T10:13:57.725Z,95339.00
2022-12-24T10:14:57.740Z,95337.00
2022-12-24T10:15:57.703Z,95337.00
2022-12-24T10:16:57.752Z,95339.00
2022-12-24T10:17:57.714Z,95341.00
2022-12-24T10:18:57.677Z,95339.00
2022-12-24T10:19:57.670Z,95339.00
2022-12-24T10:20:57.666Z,95339.00
2022-12-24T10:21:57.646Z,95333.00
2022-12-24T10:22:57.639Z,95333.00
2022-12-24T10:23:57.630Z,95333.00
2022-12-24T10:24:57.618Z,95337.00
2022-12-24T10:25:57.605Z,95341.00
2022-12-24T10:26:57.601Z,95341.00
2022-12-24T10:27:57.590Z,95341.00
2022-12-24T10:28:57.597Z,95341.00
2022-12-24T10:29:57.574Z,95341.00
2022-12-24T10:30:57.598Z,95347.00
2022-12-24T10:31:57.548Z,95343.00
2022-12-24T10:32:57.542Z,95343.00
2022-12-24T10:33:57.530Z,95345.00
2022-12-24T10:34:57.528Z,95345.00
2022-12-24T10:35:57.509Z,95345.00
2022-12-24T10:36:57.514Z,95343.00
2022-12-24T10:37:57.492Z,95337.00
2022-12-24T10:38:57.484Z,95337.00
2022-12-24T10:39:57.473Z,95335.00
2022-12-24T10:40:57.463Z,95333.00
2022-12-24T10:41:57.451Z,95331.00
2022-12-24T10:42:57.466Z,95325.00
2022-12-24T10:43:57.437Z,95321.00
2022-12-24T10:44:57.426Z,95317.00
2022-12-24T10:45:57.495Z,95317.00
2022-12-24T10:46:57.482Z,95321.00
2022-12-24T10:47:57.394Z,95323.00
2022-12-24T10:48:57.393Z,95321.00
2022-12-24T10:49:57.377Z,95319.00
2022-12-24T10:50:57.380Z,95319.00
